Overview Statistics Trail Chart Weather Telemetry Raw packets
 

This is the latest recevied weather packets stored in our database for station/object KG5CK-1. If no packets are shown the sender has not sent any weather packets the latest 10 day(s).

<< 73 74 75 76 77 78 79 >>
Time Temp. Humidity Pressure Rain* Wind** Luminosity Snow
1788623343 33.33° C 60% 1011 hPa 0 mm 0.89 m/s, 97° - -
1788623283 33.33° C 60% 1011 hPa 0 mm 0.89 m/s, 97° - -
1788623222 33.33° C 60% 1011 hPa 0 mm 0.89 m/s, 97° - -
1788623163 33.33° C 60% 1011 hPa 0 mm 0.89 m/s, 97° - -
1788623102 32.78° C 59% 1010.8 hPa 0 mm 0.45 m/s, 91° - -
1788623043 32.78° C 59% 1010.8 hPa 0 mm 0.45 m/s, 91° - -
1788622982 32.78° C 59% 1010.8 hPa 0 mm 0.45 m/s, 91° - -
1788622922 32.78° C 59% 1010.8 hPa 0 mm 0.45 m/s, 91° - -
1788622862 32.78° C 59% 1010.8 hPa 0 mm 0.45 m/s, 91° - -
1788622802 32.78° C 61% 1011 hPa 0 mm 0.45 m/s, 67° - -
1788622742 32.78° C 61% 1011 hPa 0 mm 0.45 m/s, 67° - -
1788622682 32.78° C 61% 1011 hPa 0 mm 0.45 m/s, 67° - -
1788622622 32.78° C 61% 1011 hPa 0 mm 0.45 m/s, 67° - -
1788622562 32.78° C 61% 1011 hPa 0 mm 0.45 m/s, 67° - -
1788622502 32.78° C 63% 1010.7 hPa 0 mm 0.45 m/s, 96° - -
1788622443 32.78° C 63% 1010.7 hPa 0 mm 0.45 m/s, 96° - -
1788622383 32.78° C 63% 1010.7 hPa 0 mm 0.45 m/s, 96° - -
1788622322 32.78° C 63% 1010.7 hPa 0 mm 0.45 m/s, 96° - -
1788622263 32.78° C 63% 1010.7 hPa 0 mm 0.45 m/s, 96° - -
1788622203 32.22° C 64% 1010.8 hPa 0 mm 0.45 m/s, 106° - -
1788622143 32.22° C 64% 1010.8 hPa 0 mm 0.45 m/s, 106° - -
1788622082 32.22° C 64% 1010.8 hPa 0 mm 0.45 m/s, 106° - -
1788622023 32.22° C 64% 1010.8 hPa 0 mm 0.45 m/s, 106° - -
1788621963 32.22° C 64% 1010.8 hPa 0 mm 0.45 m/s, 106° - -
1788621903 32.22° C 66% 1010.9 hPa 0 mm 0.45 m/s, 53° - -

* Rain latest hour (hover to see other rain measurements)
** Current wind speed in m/s (hover to see current wind gust speed)